sensor_id;sensor_type;location;lat;lon;timestamp;P1;durP1;ratioP1;P2;durP2;ratioP2
71836;SDS011;59686;51.716;7.016;2023-12-04T00:01:24;12.97;;;9.00;;
71836;SDS011;59686;51.716;7.016;2023-12-04T00:03:51;11.63;;;8.43;;
71836;SDS011;59686;51.716;7.016;2023-12-04T00:06:18;12.13;;;8.73;;
71836;SDS011;59686;51.716;7.016;2023-12-04T00:08:43;11.10;;;8.20;;
71836;SDS011;59686;51.716;7.016;2023-12-04T00:11:09;12.00;;;8.93;;
71836;SDS011;59686;51.716;7.016;2023-12-04T00:13:35;13.40;;;8.90;;
71836;SDS011;59686;51.716;7.016;2023-12-04T00:16:00;13.50;;;8.40;;
71836;SDS011;59686;51.716;7.016;2023-12-04T00:18:26;12.73;;;8.70;;
71836;SDS011;59686;51.716;7.016;2023-12-04T00:20:52;12.43;;;8.37;;
71836;SDS011;59686;51.716;7.016;2023-12-04T00:23:17;12.63;;;8.83;;
71836;SDS011;59686;51.716;7.016;2023-12-04T00:25:44;13.33;;;8.83;;
71836;SDS011;59686;51.716;7.016;2023-12-04T00:28:09;13.10;;;8.47;;
71836;SDS011;59686;51.716;7.016;2023-12-04T00:30:35;12.90;;;8.70;;
71836;SDS011;59686;51.716;7.016;2023-12-04T00:33:01;12.77;;;8.17;;
71836;SDS011;59686;51.716;7.016;2023-12-04T00:35:26;13.33;;;8.93;;
71836;SDS011;59686;51.716;7.016;2023-12-04T00:37:55;12.37;;;8.67;;
71836;SDS011;59686;51.716;7.016;2023-12-04T00:40:21;12.93;;;8.90;;
71836;SDS011;59686;51.716;7.016;2023-12-04T00:42:46;12.70;;;8.10;;
71836;SDS011;59686;51.716;7.016;2023-12-04T00:45:12;11.63;;;8.47;;
71836;SDS011;59686;51.716;7.016;2023-12-04T00:47:38;11.83;;;8.23;;
71836;SDS011;59686;51.716;7.016;2023-12-04T00:50:03;14.27;;;9.57;;
71836;SDS011;59686;51.716;7.016;2023-12-04T00:52:29;13.60;;;8.67;;
71836;SDS011;59686;51.716;7.016;2023-12-04T00:55:14;13.10;;;8.80;;
71836;SDS011;59686;51.716;7.016;2023-12-04T00:57:39;12.53;;;8.43;;
71836;SDS011;59686;51.716;7.016;2023-12-04T01:00:05;13.17;;;8.30;;
71836;SDS011;59686;51.716;7.016;2023-12-04T01:02:33;13.60;;;8.93;;
71836;SDS011;59686;51.716;7.016;2023-12-04T01:04:59;12.67;;;8.40;;
71836;SDS011;59686;51.716;7.016;2023-12-04T01:07:25;12.30;;;8.27;;
71836;SDS011;59686;51.716;7.016;2023-12-04T01:09:50;13.33;;;8.73;;
71836;SDS011;59686;51.716;7.016;2023-12-04T01:12:25;14.57;;;8.87;;
71836;SDS011;59686;51.716;7.016;2023-12-04T01:14:51;12.90;;;8.37;;
71836;SDS011;59686;51.716;7.016;2023-12-04T01:17:17;11.67;;;8.07;;
71836;SDS011;59686;51.716;7.016;2023-12-04T01:19:43;12.97;;;8.13;;
71836;SDS011;59686;51.716;7.016;2023-12-04T01:22:09;13.20;;;8.83;;
71836;SDS011;59686;51.716;7.016;2023-12-04T01:24:34;10.70;;;8.40;;
71836;SDS011;59686;51.716;7.016;2023-12-04T01:27:00;12.97;;;8.10;;
71836;SDS011;59686;51.716;7.016;2023-12-04T01:29:25;11.40;;;8.43;;
71836;SDS011;59686;51.716;7.016;2023-12-04T01:31:51;13.10;;;8.57;;
71836;SDS011;59686;51.716;7.016;2023-12-04T01:34:17;11.27;;;8.13;;
71836;SDS011;59686;51.716;7.016;2023-12-04T01:36:42;12.03;;;8.57;;
71836;SDS011;59686;51.716;7.016;2023-12-04T01:39:08;10.30;;;8.10;;
71836;SDS011;59686;51.716;7.016;2023-12-04T01:41:34;11.93;;;8.70;;
71836;SDS011;59686;51.716;7.016;2023-12-04T01:43:59;12.17;;;8.60;;
71836;SDS011;59686;51.716;7.016;2023-12-04T01:46:25;11.47;;;8.40;;
71836;SDS011;59686;51.716;7.016;2023-12-04T01:48:51;12.43;;;8.13;;
71836;SDS011;59686;51.716;7.016;2023-12-04T01:51:17;10.20;;;7.57;;
71836;SDS011;59686;51.716;7.016;2023-12-04T01:53:45;12.00;;;8.20;;
71836;SDS011;59686;51.716;7.016;2023-12-04T01:56:12;12.37;;;7.90;;
71836;SDS011;59686;51.716;7.016;2023-12-04T01:58:51;12.03;;;8.03;;
71836;SDS011;59686;51.716;7.016;2023-12-04T02:01:17;11.17;;;8.00;;
71836;SDS011;59686;51.716;7.016;2023-12-04T02:03:44;12.70;;;8.33;;
71836;SDS011;59686;51.716;7.016;2023-12-04T02:06:10;11.90;;;8.07;;
71836;SDS011;59686;51.716;7.016;2023-12-04T02:08:37;11.70;;;7.80;;
71836;SDS011;59686;51.716;7.016;2023-12-04T02:11:04;12.03;;;8.50;;
71836;SDS011;59686;51.716;7.016;2023-12-04T02:13:30;13.10;;;8.40;;
71836;SDS011;59686;51.716;7.016;2023-12-04T02:15:56;11.97;;;8.73;;
71836;SDS011;59686;51.716;7.016;2023-12-04T02:18:23;11.37;;;8.03;;
71836;SDS011;59686;51.716;7.016;2023-12-04T02:20:50;12.33;;;8.40;;
71836;SDS011;59686;51.716;7.016;2023-12-04T02:23:15;12.70;;;8.67;;
71836;SDS011;59686;51.716;7.016;2023-12-04T02:25:41;10.83;;;7.97;;
71836;SDS011;59686;51.716;7.016;2023-12-04T02:28:07;12.40;;;8.00;;
71836;SDS011;59686;51.716;7.016;2023-12-04T02:30:37;12.10;;;8.13;;
71836;SDS011;59686;51.716;7.016;2023-12-04T02:33:05;11.57;;;8.27;;
71836;SDS011;59686;51.716;7.016;2023-12-04T02:35:32;11.70;;;7.93;;
71836;SDS011;59686;51.716;7.016;2023-12-04T02:38:00;11.60;;;7.90;;
71836;SDS011;59686;51.716;7.016;2023-12-04T02:40:27;12.00;;;7.83;;
71836;SDS011;59686;51.716;7.016;2023-12-04T02:42:53;10.17;;;7.60;;
71836;SDS011;59686;51.716;7.016;2023-12-04T02:45:19;11.40;;;7.93;;
71836;SDS011;59686;51.716;7.016;2023-12-04T02:47:45;10.43;;;7.70;;
71836;SDS011;59686;51.716;7.016;2023-12-04T02:50:10;11.30;;;8.07;;
71836;SDS011;59686;51.716;7.016;2023-12-04T02:52:36;11.37;;;8.33;;
71836;SDS011;59686;51.716;7.016;2023-12-04T02:55:02;11.23;;;7.97;;
71836;SDS011;59686;51.716;7.016;2023-12-04T02:57:27;10.50;;;7.43;;
71836;SDS011;59686;51.716;7.016;2023-12-04T02:59:53;11.73;;;7.97;;
71836;SDS011;59686;51.716;7.016;2023-12-04T03:02:19;10.50;;;7.80;;
71836;SDS011;59686;51.716;7.016;2023-12-04T03:04:45;11.23;;;7.53;;
71836;SDS011;59686;51.716;7.016;2023-12-04T03:07:11;10.43;;;7.43;;
71836;SDS011;59686;51.716;7.016;2023-12-04T03:09:36;10.00;;;7.63;;
71836;SDS011;59686;51.716;7.016;2023-12-04T03:12:02;10.17;;;6.87;;
71836;SDS011;59686;51.716;7.016;2023-12-04T03:16:59;10.63;;;7.67;;
71836;SDS011;59686;51.716;7.016;2023-12-04T03:19:25;11.00;;;7.77;;
71836;SDS011;59686;51.716;7.016;2023-12-04T03:21:50;11.90;;;8.20;;
71836;SDS011;59686;51.716;7.016;2023-12-04T03:24:16;10.53;;;7.77;;
71836;SDS011;59686;51.716;7.016;2023-12-04T03:26:42;12.00;;;7.60;;
71836;SDS011;59686;51.716;7.016;2023-12-04T03:29:07;10.07;;;7.30;;
71836;SDS011;59686;51.716;7.016;2023-12-04T03:31:33;11.40;;;7.60;;
71836;SDS011;59686;51.716;7.016;2023-12-04T03:34:01;10.37;;;7.27;;
71836;SDS011;59686;51.716;7.016;2023-12-04T03:36:27;10.80;;;7.20;;
71836;SDS011;59686;51.716;7.016;2023-12-04T03:38:53;8.87;;;7.00;;
71836;SDS011;59686;51.716;7.016;2023-12-04T03:41:19;10.40;;;7.13;;
71836;SDS011;59686;51.716;7.016;2023-12-04T03:43:44;11.80;;;7.50;;
71836;SDS011;59686;51.716;7.016;2023-12-04T03:46:10;9.87;;;6.93;;
71836;SDS011;59686;51.716;7.016;2023-12-04T03:48:35;9.20;;;6.80;;
71836;SDS011;59686;51.716;7.016;2023-12-04T03:51:01;11.17;;;7.27;;
71836;SDS011;59686;51.716;7.016;2023-12-04T03:53:27;9.17;;;7.07;;
71836;SDS011;59686;51.716;7.016;2023-12-04T03:55:53;8.87;;;6.70;;
71836;SDS011;59686;51.716;7.016;2023-12-04T03:58:18;9.93;;;6.90;;
71836;SDS011;59686;51.716;7.016;2023-12-04T04:00:44;9.93;;;6.77;;
71836;SDS011;59686;51.716;7.016;2023-12-04T04:03:10;9.53;;;7.30;;
71836;SDS011;59686;51.716;7.016;2023-12-04T04:05:36;8.87;;;6.50;;
71836;SDS011;59686;51.716;7.016;2023-12-04T04:08:02;10.10;;;7.37;;
71836;SDS011;59686;51.716;7.016;2023-12-04T04:10:28;7.90;;;6.27;;
71836;SDS011;59686;51.716;7.016;2023-12-04T04:12:53;9.17;;;6.23;;
71836;SDS011;59686;51.716;7.016;2023-12-04T04:15:19;9.33;;;6.40;;
71836;SDS011;59686;51.716;7.016;2023-12-04T04:17:45;9.50;;;6.67;;
71836;SDS011;59686;51.716;7.016;2023-12-04T04:20:11;9.67;;;6.40;;
71836;SDS011;59686;51.716;7.016;2023-12-04T04:22:37;8.83;;;6.23;;
71836;SDS011;59686;51.716;7.016;2023-12-04T04:25:08;9.27;;;6.53;;
71836;SDS011;59686;51.716;7.016;2023-12-04T04:27:34;9.60;;;6.93;;
71836;SDS011;59686;51.716;7.016;2023-12-04T04:30:00;7.67;;;5.90;;
71836;SDS011;59686;51.716;7.016;2023-12-04T04:32:26;9.20;;;6.43;;
71836;SDS011;59686;51.716;7.016;2023-12-04T04:34:52;8.40;;;6.37;;
71836;SDS011;59686;51.716;7.016;2023-12-04T04:37:33;8.87;;;5.80;;
71836;SDS011;59686;51.716;7.016;2023-12-04T04:39:59;8.97;;;6.10;;
71836;SDS011;59686;51.716;7.016;2023-12-04T04:42:24;8.37;;;6.47;;
71836;SDS011;59686;51.716;7.016;2023-12-04T04:44:50;7.23;;;6.20;;
71836;SDS011;59686;51.716;7.016;2023-12-04T04:47:15;8.73;;;5.87;;
71836;SDS011;59686;51.716;7.016;2023-12-04T04:49:41;7.63;;;5.83;;
71836;SDS011;59686;51.716;7.016;2023-12-04T04:52:07;8.37;;;5.77;;
71836;SDS011;59686;51.716;7.016;2023-12-04T04:54:33;8.53;;;5.50;;
71836;SDS011;59686;51.716;7.016;2023-12-04T04:56:58;8.07;;;5.87;;
71836;SDS011;59686;51.716;7.016;2023-12-04T04:59:24;7.63;;;5.80;;
71836;SDS011;59686;51.716;7.016;2023-12-04T05:01:50;6.60;;;5.60;;
71836;SDS011;59686;51.716;7.016;2023-12-04T05:04:16;6.97;;;5.27;;
71836;SDS011;59686;51.716;7.016;2023-12-04T05:06:41;7.90;;;5.63;;
71836;SDS011;59686;51.716;7.016;2023-12-04T05:09:07;7.20;;;5.53;;
71836;SDS011;59686;51.716;7.016;2023-12-04T05:11:33;7.73;;;5.67;;
71836;SDS011;59686;51.716;7.016;2023-12-04T05:13:58;8.73;;;5.87;;
71836;SDS011;59686;51.716;7.016;2023-12-04T05:16:24;6.77;;;5.30;;
71836;SDS011;59686;51.716;7.016;2023-12-04T05:18:49;7.10;;;5.40;;
71836;SDS011;59686;51.716;7.016;2023-12-04T05:21:15;7.23;;;5.30;;
71836;SDS011;59686;51.716;7.016;2023-12-04T05:23:41;8.67;;;5.43;;
71836;SDS011;59686;51.716;7.016;2023-12-04T05:26:07;7.30;;;5.20;;
71836;SDS011;59686;51.716;7.016;2023-12-04T05:28:33;7.63;;;5.53;;
71836;SDS011;59686;51.716;7.016;2023-12-04T05:30:59;6.20;;;5.20;;
71836;SDS011;59686;51.716;7.016;2023-12-04T05:33:25;7.67;;;5.47;;
71836;SDS011;59686;51.716;7.016;2023-12-04T05:35:51;7.53;;;5.27;;
71836;SDS011;59686;51.716;7.016;2023-12-04T05:38:18;6.37;;;5.23;;
71836;SDS011;59686;51.716;7.016;2023-12-04T05:40:43;7.50;;;5.47;;
71836;SDS011;59686;51.716;7.016;2023-12-04T05:43:09;7.23;;;5.20;;
71836;SDS011;59686;51.716;7.016;2023-12-04T05:45:35;7.60;;;5.47;;
71836;SDS011;59686;51.716;7.016;2023-12-04T05:48:02;6.30;;;4.77;;
71836;SDS011;59686;51.716;7.016;2023-12-04T05:50:28;5.77;;;4.50;;
71836;SDS011;59686;51.716;7.016;2023-12-04T05:52:53;7.40;;;5.20;;
71836;SDS011;59686;51.716;7.016;2023-12-04T05:55:19;7.93;;;5.17;;
71836;SDS011;59686;51.716;7.016;2023-12-04T05:57:45;5.90;;;4.53;;
71836;SDS011;59686;51.716;7.016;2023-12-04T06:00:11;6.07;;;4.60;;
71836;SDS011;59686;51.716;7.016;2023-12-04T06:05:07;5.67;;;4.70;;
71836;SDS011;59686;51.716;7.016;2023-12-04T06:07:33;6.47;;;4.70;;
71836;SDS011;59686;51.716;7.016;2023-12-04T06:09:59;6.40;;;4.80;;
71836;SDS011;59686;51.716;7.016;2023-12-04T06:12:25;6.47;;;4.73;;
71836;SDS011;59686;51.716;7.016;2023-12-04T06:14:50;6.63;;;5.07;;
71836;SDS011;59686;51.716;7.016;2023-12-04T06:17:16;6.30;;;4.63;;
71836;SDS011;59686;51.716;7.016;2023-12-04T06:19:42;5.97;;;4.53;;
71836;SDS011;59686;51.716;7.016;2023-12-04T06:22:07;6.57;;;5.00;;
71836;SDS011;59686;51.716;7.016;2023-12-04T06:24:33;6.47;;;4.53;;
71836;SDS011;59686;51.716;7.016;2023-12-04T06:26:59;6.10;;;4.57;;
71836;SDS011;59686;51.716;7.016;2023-12-04T06:29:25;5.70;;;4.40;;
71836;SDS011;59686;51.716;7.016;2023-12-04T06:31:51;7.03;;;5.10;;
71836;SDS011;59686;51.716;7.016;2023-12-04T06:34:17;6.50;;;4.60;;
71836;SDS011;59686;51.716;7.016;2023-12-04T06:36:43;6.47;;;4.80;;
71836;SDS011;59686;51.716;7.016;2023-12-04T06:39:10;6.00;;;4.40;;
71836;SDS011;59686;51.716;7.016;2023-12-04T06:41:37;6.50;;;4.30;;
71836;SDS011;59686;51.716;7.016;2023-12-04T06:44:03;6.33;;;4.90;;
71836;SDS011;59686;51.716;7.016;2023-12-04T06:46:30;5.33;;;4.50;;
71836;SDS011;59686;51.716;7.016;2023-12-04T06:48:59;6.60;;;4.70;;
71836;SDS011;59686;51.716;7.016;2023-12-04T06:51:25;6.33;;;4.87;;
71836;SDS011;59686;51.716;7.016;2023-12-04T06:53:50;6.07;;;4.57;;
71836;SDS011;59686;51.716;7.016;2023-12-04T06:56:17;6.70;;;4.90;;
71836;SDS011;59686;51.716;7.016;2023-12-04T06:58:43;5.60;;;4.80;;
71836;SDS011;59686;51.716;7.016;2023-12-04T07:01:08;6.40;;;4.60;;
71836;SDS011;59686;51.716;7.016;2023-12-04T07:03:34;7.63;;;5.00;;
71836;SDS011;59686;51.716;7.016;2023-12-04T07:06:00;6.57;;;4.63;;
71836;SDS011;59686;51.716;7.016;2023-12-04T07:08:26;6.20;;;4.53;;
71836;SDS011;59686;51.716;7.016;2023-12-04T07:10:52;6.27;;;4.80;;
71836;SDS011;59686;51.716;7.016;2023-12-04T07:13:17;5.40;;;4.37;;
71836;SDS011;59686;51.716;7.016;2023-12-04T07:15:43;5.60;;;4.27;;
71836;SDS011;59686;51.716;7.016;2023-12-04T07:20:37;6.40;;;4.90;;
71836;SDS011;59686;51.716;7.016;2023-12-04T07:23:03;6.60;;;4.80;;
71836;SDS011;59686;51.716;7.016;2023-12-04T07:25:28;6.57;;;4.60;;
71836;SDS011;59686;51.716;7.016;2023-12-04T07:27:54;6.83;;;4.43;;
71836;SDS011;59686;51.716;7.016;2023-12-04T07:30:20;6.57;;;5.17;;
71836;SDS011;59686;51.716;7.016;2023-12-04T07:32:46;5.83;;;4.77;;
71836;SDS011;59686;51.716;7.016;2023-12-04T07:35:11;6.30;;;5.00;;
71836;SDS011;59686;51.716;7.016;2023-12-04T07:37:39;6.13;;;4.87;;
71836;SDS011;59686;51.716;7.016;2023-12-04T07:40:04;7.60;;;4.53;;
71836;SDS011;59686;51.716;7.016;2023-12-04T07:42:33;6.37;;;4.77;;
71836;SDS011;59686;51.716;7.016;2023-12-04T07:44:58;6.07;;;4.57;;
71836;SDS011;59686;51.716;7.016;2023-12-04T07:47:24;6.83;;;4.90;;
71836;SDS011;59686;51.716;7.016;2023-12-04T07:49:50;6.23;;;4.80;;
71836;SDS011;59686;51.716;7.016;2023-12-04T07:52:15;6.80;;;5.00;;
71836;SDS011;59686;51.716;7.016;2023-12-04T07:54:42;7.07;;;4.77;;
71836;SDS011;59686;51.716;7.016;2023-12-04T07:57:07;6.80;;;5.17;;
71836;SDS011;59686;51.716;7.016;2023-12-04T07:59:34;6.57;;;4.60;;
71836;SDS011;59686;51.716;7.016;2023-12-04T08:02:00;5.40;;;4.33;;
71836;SDS011;59686;51.716;7.016;2023-12-04T08:04:25;6.30;;;4.60;;
71836;SDS011;59686;51.716;7.016;2023-12-04T08:06:52;5.70;;;4.43;;
71836;SDS011;59686;51.716;7.016;2023-12-04T08:09:18;5.27;;;4.50;;
71836;SDS011;59686;51.716;7.016;2023-12-04T08:11:43;6.00;;;4.70;;
71836;SDS011;59686;51.716;7.016;2023-12-04T08:14:09;6.17;;;4.70;;
71836;SDS011;59686;51.716;7.016;2023-12-04T08:16:35;6.40;;;4.47;;
71836;SDS011;59686;51.716;7.016;2023-12-04T08:19:04;6.03;;;4.63;;
71836;SDS011;59686;51.716;7.016;2023-12-04T08:21:29;5.97;;;4.67;;
71836;SDS011;59686;51.716;7.016;2023-12-04T08:23:55;6.13;;;5.17;;
71836;SDS011;59686;51.716;7.016;2023-12-04T08:26:24;5.87;;;4.77;;
71836;SDS011;59686;51.716;7.016;2023-12-04T08:28:53;6.10;;;4.30;;
71836;SDS011;59686;51.716;7.016;2023-12-04T08:31:19;6.40;;;4.50;;
71836;SDS011;59686;51.716;7.016;2023-12-04T08:33:48;6.93;;;5.00;;
71836;SDS011;59686;51.716;7.016;2023-12-04T08:36:14;6.53;;;4.70;;
71836;SDS011;59686;51.716;7.016;2023-12-04T08:38:40;5.70;;;4.77;;
71836;SDS011;59686;51.716;7.016;2023-12-04T08:41:06;6.67;;;4.53;;
71836;SDS011;59686;51.716;7.016;2023-12-04T08:43:32;7.20;;;4.73;;
71836;SDS011;59686;51.716;7.016;2023-12-04T08:45:57;7.43;;;4.60;;
71836;SDS011;59686;51.716;7.016;2023-12-04T08:48:23;5.73;;;4.60;;
71836;SDS011;59686;51.716;7.016;2023-12-04T08:50:49;5.90;;;4.20;;
71836;SDS011;59686;51.716;7.016;2023-12-04T08:53:15;5.70;;;4.50;;
71836;SDS011;59686;51.716;7.016;2023-12-04T08:55:40;5.90;;;4.50;;
71836;SDS011;59686;51.716;7.016;2023-12-04T08:58:06;6.23;;;4.63;;
71836;SDS011;59686;51.716;7.016;2023-12-04T09:03:02;6.27;;;4.17;;
71836;SDS011;59686;51.716;7.016;2023-12-04T09:05:28;6.23;;;4.30;;
71836;SDS011;59686;51.716;7.016;2023-12-04T09:07:54;6.20;;;4.57;;
71836;SDS011;59686;51.716;7.016;2023-12-04T09:10:19;5.37;;;4.23;;
71836;SDS011;59686;51.716;7.016;2023-12-04T09:12:45;5.87;;;4.60;;
71836;SDS011;59686;51.716;7.016;2023-12-04T09:15:10;5.73;;;4.70;;
71836;SDS011;59686;51.716;7.016;2023-12-04T09:17:36;6.97;;;4.63;;
71836;SDS011;59686;51.716;7.016;2023-12-04T09:20:02;7.57;;;4.43;;
71836;SDS011;59686;51.716;7.016;2023-12-04T09:22:30;6.23;;;4.60;;
71836;SDS011;59686;51.716;7.016;2023-12-04T09:24:56;6.43;;;4.50;;
71836;SDS011;59686;51.716;7.016;2023-12-04T09:27:22;5.27;;;4.27;;
71836;SDS011;59686;51.716;7.016;2023-12-04T09:29:48;6.20;;;4.57;;
71836;SDS011;59686;51.716;7.016;2023-12-04T09:32:13;5.63;;;4.03;;
71836;SDS011;59686;51.716;7.016;2023-12-04T09:34:39;5.70;;;4.40;;
71836;SDS011;59686;51.716;7.016;2023-12-04T09:37:05;4.60;;;3.90;;
71836;SDS011;59686;51.716;7.016;2023-12-04T09:39:30;5.80;;;4.23;;
71836;SDS011;59686;51.716;7.016;2023-12-04T09:41:56;6.30;;;4.40;;
71836;SDS011;59686;51.716;7.016;2023-12-04T09:44:23;6.23;;;4.43;;
71836;SDS011;59686;51.716;7.016;2023-12-04T09:46:51;6.50;;;4.13;;
71836;SDS011;59686;51.716;7.016;2023-12-04T09:49:17;5.23;;;4.37;;
71836;SDS011;59686;51.716;7.016;2023-12-04T09:51:43;5.47;;;4.37;;
71836;SDS011;59686;51.716;7.016;2023-12-04T09:54:09;5.40;;;4.30;;
71836;SDS011;59686;51.716;7.016;2023-12-04T09:56:37;4.73;;;3.83;;
71836;SDS011;59686;51.716;7.016;2023-12-04T09:59:03;6.03;;;4.53;;
71836;SDS011;59686;51.716;7.016;2023-12-04T10:01:31;4.67;;;3.90;;
71836;SDS011;59686;51.716;7.016;2023-12-04T10:03:58;7.27;;;4.50;;
71836;SDS011;59686;51.716;7.016;2023-12-04T10:06:28;6.13;;;4.43;;
71836;SDS011;59686;51.716;7.016;2023-12-04T10:08:54;5.33;;;4.37;;
71836;SDS011;59686;51.716;7.016;2023-12-04T10:11:31;7.57;;;4.37;;
71836;SDS011;59686;51.716;7.016;2023-12-04T10:13:56;6.07;;;4.20;;
71836;SDS011;59686;51.716;7.016;2023-12-04T10:16:35;5.43;;;4.10;;
71836;SDS011;59686;51.716;7.016;2023-12-04T10:21:48;4.40;;;3.67;;
71836;SDS011;59686;51.716;7.016;2023-12-04T10:24:29;5.73;;;4.30;;
71836;SDS011;59686;51.716;7.016;2023-12-04T10:26:57;6.67;;;4.27;;
71836;SDS011;59686;51.716;7.016;2023-12-04T10:29:23;6.00;;;4.13;;
71836;SDS011;59686;51.716;7.016;2023-12-04T10:31:50;5.13;;;4.10;;
71836;SDS011;59686;51.716;7.016;2023-12-04T10:34:18;5.10;;;4.30;;
71836;SDS011;59686;51.716;7.016;2023-12-04T10:36:44;5.57;;;4.03;;
71836;SDS011;59686;51.716;7.016;2023-12-04T10:39:11;4.73;;;4.00;;
71836;SDS011;59686;51.716;7.016;2023-12-04T10:41:38;7.10;;;4.40;;
71836;SDS011;59686;51.716;7.016;2023-12-04T10:44:04;5.17;;;3.87;;
71836;SDS011;59686;51.716;7.016;2023-12-04T10:46:36;6.23;;;4.43;;
71836;SDS011;59686;51.716;7.016;2023-12-04T10:49:04;5.37;;;3.73;;
71836;SDS011;59686;51.716;7.016;2023-12-04T10:51:32;5.90;;;4.47;;
71836;SDS011;59686;51.716;7.016;2023-12-04T10:54:00;4.80;;;4.00;;
71836;SDS011;59686;51.716;7.016;2023-12-04T10:56:44;4.83;;;3.50;;
71836;SDS011;59686;51.716;7.016;2023-12-04T10:59:14;5.10;;;3.80;;
71836;SDS011;59686;51.716;7.016;2023-12-04T11:01:44;6.77;;;4.37;;
71836;SDS011;59686;51.716;7.016;2023-12-04T11:04:13;4.63;;;3.67;;
71836;SDS011;59686;51.716;7.016;2023-12-04T11:06:42;4.57;;;3.87;;
71836;SDS011;59686;51.716;7.016;2023-12-04T11:09:12;6.03;;;4.30;;
71836;SDS011;59686;51.716;7.016;2023-12-04T11:11:39;5.97;;;4.30;;
71836;SDS011;59686;51.716;7.016;2023-12-04T11:14:16;6.67;;;3.90;;
71836;SDS011;59686;51.716;7.016;2023-12-04T11:16:54;5.70;;;4.10;;
71836;SDS011;59686;51.716;7.016;2023-12-04T11:19:28;6.40;;;3.93;;
71836;SDS011;59686;51.716;7.016;2023-12-04T11:22:00;5.20;;;3.67;;
71836;SDS011;59686;51.716;7.016;2023-12-04T11:24:27;4.90;;;3.50;;
71836;SDS011;59686;51.716;7.016;2023-12-04T11:26:53;5.27;;;4.07;;
71836;SDS011;59686;51.716;7.016;2023-12-04T11:29:19;5.73;;;4.00;;
71836;SDS011;59686;51.716;7.016;2023-12-04T11:31:47;5.13;;;3.90;;
71836;SDS011;59686;51.716;7.016;2023-12-04T11:34:12;5.20;;;3.80;;
71836;SDS011;59686;51.716;7.016;2023-12-04T11:36:38;6.57;;;3.80;;
71836;SDS011;59686;51.716;7.016;2023-12-04T11:39:14;4.43;;;3.50;;
71836;SDS011;59686;51.716;7.016;2023-12-04T11:41:42;6.03;;;3.70;;
71836;SDS011;59686;51.716;7.016;2023-12-04T11:44:13;4.53;;;3.67;;
71836;SDS011;59686;51.716;7.016;2023-12-04T11:47:03;4.10;;;3.40;;
71836;SDS011;59686;51.716;7.016;2023-12-04T11:49:31;4.50;;;3.63;;
71836;SDS011;59686;51.716;7.016;2023-12-04T11:51:57;4.87;;;3.63;;
71836;SDS011;59686;51.716;7.016;2023-12-04T11:54:35;5.37;;;4.20;;
71836;SDS011;59686;51.716;7.016;2023-12-04T12:00:12;5.63;;;4.00;;
71836;SDS011;59686;51.716;7.016;2023-12-04T12:02:46;5.10;;;4.17;;
71836;SDS011;59686;51.716;7.016;2023-12-04T12:05:14;4.93;;;3.60;;
71836;SDS011;59686;51.716;7.016;2023-12-04T12:07:42;6.00;;;4.30;;
71836;SDS011;59686;51.716;7.016;2023-12-04T12:10:09;4.77;;;3.60;;
71836;SDS011;59686;51.716;7.016;2023-12-04T12:12:36;6.43;;;4.27;;
71836;SDS011;59686;51.716;7.016;2023-12-04T12:15:02;5.27;;;4.30;;
71836;SDS011;59686;51.716;7.016;2023-12-04T12:17:28;5.37;;;3.80;;
71836;SDS011;59686;51.716;7.016;2023-12-04T12:19:54;5.53;;;4.17;;
71836;SDS011;59686;51.716;7.016;2023-12-04T12:22:23;5.20;;;4.13;;
71836;SDS011;59686;51.716;7.016;2023-12-04T12:24:50;6.63;;;4.20;;
71836;SDS011;59686;51.716;7.016;2023-12-04T12:27:15;6.87;;;4.23;;
71836;SDS011;59686;51.716;7.016;2023-12-04T12:29:41;6.13;;;4.33;;
71836;SDS011;59686;51.716;7.016;2023-12-04T12:32:07;6.07;;;4.20;;
71836;SDS011;59686;51.716;7.016;2023-12-04T12:34:32;6.30;;;4.30;;
71836;SDS011;59686;51.716;7.016;2023-12-04T12:37:01;8.30;;;5.17;;
71836;SDS011;59686;51.716;7.016;2023-12-04T12:39:28;8.13;;;4.40;;
71836;SDS011;59686;51.716;7.016;2023-12-04T12:41:55;5.17;;;4.37;;
71836;SDS011;59686;51.716;7.016;2023-12-04T12:44:21;5.57;;;4.40;;
71836;SDS011;59686;51.716;7.016;2023-12-04T12:46:47;5.13;;;4.63;;
71836;SDS011;59686;51.716;7.016;2023-12-04T12:49:15;5.80;;;4.60;;
71836;SDS011;59686;51.716;7.016;2023-12-04T12:51:48;7.67;;;5.03;;
71836;SDS011;59686;51.716;7.016;2023-12-04T12:54:13;7.70;;;4.67;;
71836;SDS011;59686;51.716;7.016;2023-12-04T12:59:13;5.93;;;4.63;;
71836;SDS011;59686;51.716;7.016;2023-12-04T13:01:40;7.13;;;4.60;;
71836;SDS011;59686;51.716;7.016;2023-12-04T13:04:06;6.00;;;4.57;;
71836;SDS011;59686;51.716;7.016;2023-12-04T13:06:32;6.70;;;4.83;;
71836;SDS011;59686;51.716;7.016;2023-12-04T13:09:01;7.17;;;4.97;;
71836;SDS011;59686;51.716;7.016;2023-12-04T13:11:26;6.77;;;4.87;;
71836;SDS011;59686;51.716;7.016;2023-12-04T13:13:52;6.30;;;4.73;;
71836;SDS011;59686;51.716;7.016;2023-12-04T13:16:19;5.83;;;4.33;;
71836;SDS011;59686;51.716;7.016;2023-12-04T13:18:45;6.20;;;4.90;;
71836;SDS011;59686;51.716;7.016;2023-12-04T13:21:11;6.80;;;4.83;;
71836;SDS011;59686;51.716;7.016;2023-12-04T13:23:37;7.40;;;4.57;;
71836;SDS011;59686;51.716;7.016;2023-12-04T13:26:03;5.33;;;4.50;;
71836;SDS011;59686;51.716;7.016;2023-12-04T13:28:28;6.97;;;5.07;;
71836;SDS011;59686;51.716;7.016;2023-12-04T13:30:55;7.90;;;5.27;;
71836;SDS011;59686;51.716;7.016;2023-12-04T13:33:20;6.77;;;4.83;;
71836;SDS011;59686;51.716;7.016;2023-12-04T13:35:46;6.97;;;5.20;;
71836;SDS011;59686;51.716;7.016;2023-12-04T13:38:12;7.33;;;4.97;;
71836;SDS011;59686;51.716;7.016;2023-12-04T13:40:39;7.30;;;5.20;;
71836;SDS011;59686;51.716;7.016;2023-12-04T13:43:05;7.27;;;5.30;;
71836;SDS011;59686;51.716;7.016;2023-12-04T13:45:49;6.63;;;5.13;;
71836;SDS011;59686;51.716;7.016;2023-12-04T13:48:16;8.40;;;5.60;;
71836;SDS011;59686;51.716;7.016;2023-12-04T13:50:43;6.50;;;5.03;;
71836;SDS011;59686;51.716;7.016;2023-12-04T13:53:08;6.60;;;4.90;;
71836;SDS011;59686;51.716;7.016;2023-12-04T13:55:34;7.47;;;5.17;;
71836;SDS011;59686;51.716;7.016;2023-12-04T13:58:32;7.70;;;5.50;;
71836;SDS011;59686;51.716;7.016;2023-12-04T14:01:07;6.27;;;4.90;;
71836;SDS011;59686;51.716;7.016;2023-12-04T14:03:44;7.13;;;4.87;;
71836;SDS011;59686;51.716;7.016;2023-12-04T14:06:10;8.03;;;5.43;;
71836;SDS011;59686;51.716;7.016;2023-12-04T14:08:36;6.77;;;4.60;;
71836;SDS011;59686;51.716;7.016;2023-12-04T14:11:11;7.67;;;5.70;;
71836;SDS011;59686;51.716;7.016;2023-12-04T14:13:39;7.77;;;5.00;;
71836;SDS011;59686;51.716;7.016;2023-12-04T14:16:05;8.43;;;5.70;;
71836;SDS011;59686;51.716;7.016;2023-12-04T14:18:31;7.17;;;5.30;;
71836;SDS011;59686;51.716;7.016;2023-12-04T14:20:57;6.30;;;5.10;;
71836;SDS011;59686;51.716;7.016;2023-12-04T14:23:23;9.57;;;5.30;;
71836;SDS011;59686;51.716;7.016;2023-12-04T14:25:49;8.27;;;5.63;;
71836;SDS011;59686;51.716;7.016;2023-12-04T14:28:15;6.43;;;5.20;;
71836;SDS011;59686;51.716;7.016;2023-12-04T14:30:41;8.43;;;5.23;;
71836;SDS011;59686;51.716;7.016;2023-12-04T14:33:07;7.10;;;5.37;;
71836;SDS011;59686;51.716;7.016;2023-12-04T14:35:34;8.30;;;5.87;;
71836;SDS011;59686;51.716;7.016;2023-12-04T14:38:03;7.87;;;5.20;;
71836;SDS011;59686;51.716;7.016;2023-12-04T14:40:32;7.67;;;5.23;;
71836;SDS011;59686;51.716;7.016;2023-12-04T14:43:05;7.27;;;5.27;;
71836;SDS011;59686;51.716;7.016;2023-12-04T14:45:34;7.77;;;5.30;;
71836;SDS011;59686;51.716;7.016;2023-12-04T14:48:01;7.60;;;5.20;;
71836;SDS011;59686;51.716;7.016;2023-12-04T14:50:27;7.97;;;5.47;;
71836;SDS011;59686;51.716;7.016;2023-12-04T14:52:55;6.57;;;4.97;;
71836;SDS011;59686;51.716;7.016;2023-12-04T14:55:22;5.93;;;5.03;;
71836;SDS011;59686;51.716;7.016;2023-12-04T14:57:47;8.37;;;5.30;;
71836;SDS011;59686;51.716;7.016;2023-12-04T15:00:31;6.70;;;5.57;;